Monte Plata, Dominican Republic
Current Conditions -  °F | °C
As of 12:00 PM on Sunday 25 Jan 2015 (Local Time) from MDSD Reporting Station
Light Rain Light Rain  
Wind Chill: 82°   Ceiling: 1800
Heat Index: 88°   Visibility: 5mi
Dew Point: 73°   Wind: 7mph
Humidity: 74%   Direction: 170°S
Pressure: 30"   Gusts: NA
Location:  18.81°N, 69.79°W
Report Text: MDSD 251600Z 17006KT 8000 -RA BKN018 BKN070 28/23 Q1016
Loading
Personal Weather Stations






























Interactive Weather Map New forecast layout! Learn more

10-Day Weather Forecast

Advertisements
Track Severe Weather on mobile